createdAt,value
2023-05-06T00:00:51.325Z,2.88
2023-05-06T00:02:52.934Z,3.03
2023-05-06T00:04:54.539Z,3.70
2023-05-06T00:06:57.430Z,2.13
2023-05-06T00:08:59.561Z,3.15
2023-05-06T00:11:01.132Z,3.83
2023-05-06T00:13:02.704Z,2.40
2023-05-06T00:15:04.918Z,2.70
2023-05-06T00:17:06.639Z,3.50
2023-05-06T00:19:08.295Z,5.80
2023-05-06T00:21:09.918Z,2.28
2023-05-06T00:23:11.479Z,6.30
2023-05-06T00:25:13.111Z,2.53
2023-05-06T00:27:14.602Z,2.85
2023-05-06T00:29:16.751Z,3.38
2023-05-06T00:31:18.330Z,3.50
2023-05-06T00:33:19.860Z,2.75
2023-05-06T00:35:21.372Z,3.65
2023-05-06T00:37:22.914Z,2.03
2023-05-06T00:39:25.090Z,3.20
2023-05-06T00:41:30.998Z,4.57
2023-05-06T00:43:32.552Z,2.83
2023-05-06T00:45:34.255Z,2.13
2023-05-06T00:47:35.845Z,3.03
2023-05-06T00:49:37.403Z,2.47
2023-05-06T00:51:39.005Z,2.03
2023-05-06T00:53:41.130Z,5.18
2023-05-06T00:55:42.696Z,2.47
2023-05-06T00:57:44.258Z,6.63
2023-05-06T00:59:45.899Z,4.00
2023-05-06T01:01:47.558Z,5.70
2023-05-06T01:03:49.380Z,3.28
2023-05-06T01:06:16.582Z,2.30
2023-05-06T01:08:30.008Z,2.35
2023-05-06T01:11:00.312Z,2.67
2023-05-06T01:13:31.372Z,3.28
2023-05-06T01:15:35.854Z,3.17
2023-05-06T01:17:42.663Z,2.50
2023-05-06T01:19:53.308Z,3.75
2023-05-06T01:21:54.933Z,6.32
2023-05-06T01:23:58.187Z,1.60
2023-05-06T01:26:00.058Z,2.53
2023-05-06T01:28:01.640Z,1.70
2023-05-06T01:30:03.890Z,4.72
2023-05-06T01:32:17.399Z,1.92
2023-05-06T01:34:28.109Z,2.25
2023-05-06T01:36:35.233Z,3.08
2023-05-06T01:38:57.623Z,3.55
2023-05-06T01:41:00.780Z,3.65
2023-05-06T01:43:05.824Z,6.10
2023-05-06T01:45:08.527Z,3.15
2023-05-06T01:47:10.584Z,2.55
2023-05-06T01:49:12.820Z,3.33
2023-05-06T01:51:14.345Z,3.13
2023-05-06T01:53:16.214Z,2.22
2023-05-06T01:55:17.760Z,2.42
2023-05-06T01:57:19.349Z,3.80
2023-05-06T01:59:20.917Z,5.53
2023-05-06T02:01:22.447Z,2.22
2023-05-06T02:03:24.058Z,2.28
2023-05-06T02:05:26.391Z,2.78
2023-05-06T02:07:28.044Z,2.33
2023-05-06T02:09:29.690Z,2.03
2023-05-06T02:11:31.198Z,2.28
2023-05-06T02:13:32.714Z,3.55
2023-05-06T02:15:34.234Z,3.05
2023-05-06T02:17:37.579Z,2.17
2023-05-06T02:19:39.126Z,2.33
2023-05-06T02:21:40.756Z,2.15
2023-05-06T02:23:42.339Z,2.55
2023-05-06T02:25:43.977Z,2.22
2023-05-06T02:27:45.640Z,3.33
2023-05-06T02:29:47.298Z,2.55
2023-05-06T02:31:48.924Z,2.30
2023-05-06T02:33:50.627Z,3.53
2023-05-06T02:35:52.283Z,4.82
2023-05-06T02:37:53.938Z,4.63
2023-05-06T02:39:55.520Z,2.97
2023-05-06T02:41:57.036Z,3.72
2023-05-06T02:43:58.631Z,2.42
2023-05-06T02:46:00.336Z,2.95
2023-05-06T02:48:01.970Z,3.38
2023-05-06T02:50:04.015Z,2.78
2023-05-06T02:52:05.583Z,5.60
2023-05-06T02:54:07.158Z,2.80
2023-05-06T02:56:08.766Z,2.83
2023-05-06T02:58:10.288Z,2.95
2023-05-06T03:00:12.885Z,2.90
2023-05-06T03:02:14.461Z,2.53
2023-05-06T03:04:16.038Z,2.78
2023-05-06T03:06:17.640Z,3.03
2023-05-06T03:08:19.193Z,3.28
2023-05-06T03:10:20.876Z,3.38
2023-05-06T03:12:22.427Z,6.65
2023-05-06T03:14:24.005Z,3.72
2023-05-06T03:16:25.579Z,3.22
2023-05-06T03:18:27.308Z,2.80
2023-05-06T03:20:28.998Z,2.78
2023-05-06T03:22:30.648Z,3.15
2023-05-06T03:24:32.224Z,3.40
2023-05-06T03:26:33.848Z,3.92
2023-05-06T03:28:35.466Z,3.45
2023-05-06T03:30:37.040Z,3.35
2023-05-06T03:32:38.750Z,2.47
2023-05-06T03:34:40.301Z,2.90
2023-05-06T03:36:41.855Z,2.50
2023-05-06T03:38:43.354Z,2.78
2023-05-06T03:40:44.858Z,3.28
2023-05-06T03:42:46.446Z,3.28
2023-05-06T03:44:47.964Z,3.92
2023-05-06T03:46:49.553Z,3.20
2023-05-06T03:48:51.088Z,3.95
2023-05-06T03:50:52.729Z,3.17
2023-05-06T03:52:54.309Z,2.83
2023-05-06T03:54:55.812Z,2.53
2023-05-06T03:56:57.395Z,2.80
2023-05-06T03:58:58.960Z,2.78
2023-05-06T04:01:01.108Z,2.78
2023-05-06T04:03:03.010Z,2.28
2023-05-06T04:05:04.792Z,6.85
2023-05-06T04:07:06.273Z,2.60
2023-05-06T04:09:07.836Z,3.42
2023-05-06T04:11:09.365Z,4.47
2023-05-06T04:13:11.056Z,2.95
2023-05-06T04:15:12.764Z,3.08
2023-05-06T04:17:14.380Z,5.18
2023-05-06T04:19:17.506Z,3.83
2023-05-06T04:21:18.991Z,5.88
2023-05-06T04:23:20.606Z,4.10
2023-05-06T04:25:22.243Z,4.30
2023-05-06T04:27:26.595Z,4.18
2023-05-06T04:29:28.116Z,5.28
2023-05-06T04:31:29.755Z,4.05
2023-05-06T04:33:31.536Z,3.75
2023-05-06T04:35:33.844Z,4.18
2023-05-06T04:37:35.380Z,7.13
2023-05-06T04:39:36.974Z,7.65
2023-05-06T04:41:38.561Z,13.02
2023-05-06T04:43:40.086Z,9.93
2023-05-06T04:45:49.326Z,12.18
2023-05-06T04:47:52.355Z,9.88
2023-05-06T04:49:54.065Z,9.93
2023-05-06T04:51:55.596Z,10.13
2023-05-06T04:53:57.100Z,10.38
2023-05-06T04:55:58.589Z,11.93
2023-05-06T04:58:00.147Z,9.32
2023-05-06T05:00:01.701Z,9.10
2023-05-06T05:02:03.627Z,10.52
2023-05-06T05:04:05.552Z,12.88
2023-05-06T05:06:07.732Z,10.07
2023-05-06T05:08:10.078Z,31.13
2023-05-06T05:10:11.999Z,15.15
2023-05-06T05:12:13.511Z,20.55
2023-05-06T05:14:15.037Z,31.90
2023-05-06T05:16:16.678Z,11.60
2023-05-06T05:18:18.361Z,20.20
2023-05-06T05:20:19.913Z,10.40
2023-05-06T05:22:21.506Z,16.95
2023-05-06T05:24:23.068Z,26.92
2023-05-06T05:26:24.686Z,17.48
2023-05-06T05:28:26.218Z,16.13
2023-05-06T05:30:27.751Z,12.77
2023-05-06T05:32:29.367Z,14.70
2023-05-06T05:34:30.935Z,14.45
2023-05-06T05:36:32.445Z,16.77
2023-05-06T05:38:33.959Z,16.02
2023-05-06T05:40:38.297Z,16.10
2023-05-06T05:42:40.383Z,15.02
2023-05-06T05:44:41.889Z,18.33
2023-05-06T05:46:43.441Z,13.95
2023-05-06T05:48:44.994Z,19.85
2023-05-06T05:50:46.729Z,18.17
2023-05-06T05:52:48.411Z,20.13
2023-05-06T05:54:51.049Z,18.40
2023-05-06T05:56:52.654Z,17.02
2023-05-06T05:58:54.177Z,17.90
2023-05-06T06:00:55.718Z,18.42
2023-05-06T06:02:57.379Z,18.52
2023-05-06T06:04:59.067Z,23.35
2023-05-06T06:07:02.010Z,23.13
2023-05-06T06:09:04.339Z,22.25
2023-05-06T06:11:06.324Z,20.15
2023-05-06T06:13:07.933Z,21.65
2023-05-06T06:15:10.165Z,21.45
2023-05-06T06:17:11.869Z,24.60
2023-05-06T06:19:14.533Z,23.25
2023-05-06T06:21:16.007Z,24.17
2023-05-06T06:23:17.539Z,23.35
2023-05-06T06:25:19.088Z,20.30
2023-05-06T06:27:20.573Z,20.25
2023-05-06T06:29:22.074Z,21.92
2023-05-06T06:31:23.605Z,25.38
2023-05-06T06:33:25.181Z,20.77
2023-05-06T06:35:27.718Z,28.05
2023-05-06T06:37:29.239Z,26.63
2023-05-06T06:39:30.840Z,20.40
2023-05-06T06:41:32.333Z,20.85
2023-05-06T06:43:33.912Z,21.42
2023-05-06T06:45:35.734Z,28.23
2023-05-06T06:47:37.366Z,30.75
2023-05-06T06:49:40.278Z,22.08
2023-05-06T06:51:41.755Z,27.08
2023-05-06T06:53:43.350Z,21.83
2023-05-06T06:55:45.896Z,20.25
2023-05-06T06:57:47.906Z,24.05
2023-05-06T06:59:51.913Z,19.50
2023-05-06T07:01:53.473Z,21.83
2023-05-06T07:03:54.992Z,19.98
2023-05-06T07:05:56.750Z,20.77
2023-05-06T07:07:58.313Z,21.23
2023-05-06T07:09:59.834Z,20.00
2023-05-06T07:12:01.839Z,19.25
2023-05-06T07:14:03.561Z,19.13
2023-05-06T07:16:05.339Z,17.13
2023-05-06T07:18:07.053Z,19.65
2023-05-06T07:20:09.216Z,18.58
2023-05-06T07:22:10.952Z,20.77
2023-05-06T07:24:12.561Z,17.90
2023-05-06T07:26:14.202Z,22.42
2023-05-06T07:28:15.794Z,19.42
2023-05-06T07:30:21.682Z,19.63
2023-05-06T07:32:24.754Z,17.88
2023-05-06T07:34:26.305Z,17.80
2023-05-06T07:36:28.798Z,19.13
2023-05-06T07:38:31.125Z,18.98
2023-05-06T07:40:32.720Z,17.75
2023-05-06T07:42:34.276Z,20.13
2023-05-06T07:44:37.055Z,16.38
2023-05-06T07:46:38.770Z,15.63
2023-05-06T07:48:40.376Z,16.10
2023-05-06T07:50:41.934Z,15.23
2023-05-06T07:52:43.458Z,20.27
2023-05-06T07:54:44.965Z,19.92
2023-05-06T07:56:46.449Z,17.30
2023-05-06T07:58:49.314Z,17.33
2023-05-06T08:00:50.851Z,17.02
2023-05-06T08:02:52.430Z,15.93
2023-05-06T08:04:54.093Z,13.43
2023-05-06T08:06:56.836Z,15.15
2023-05-06T08:08:58.409Z,15.18
2023-05-06T08:11:00.332Z,14.70
2023-05-06T08:13:01.957Z,15.40
2023-05-06T08:15:03.931Z,15.15
2023-05-06T08:17:05.533Z,15.32
2023-05-06T08:19:07.035Z,13.85
2023-05-06T08:21:08.577Z,14.43
2023-05-06T08:23:10.237Z,13.85
2023-05-06T08:25:12.104Z,13.75
2023-05-06T08:27:13.758Z,13.68
2023-05-06T08:29:15.265Z,13.73
2023-05-06T08:31:16.813Z,14.02
2023-05-06T08:33:19.220Z,13.52
2023-05-06T08:35:21.430Z,12.55
2023-05-06T08:37:22.991Z,12.75
2023-05-06T08:39:24.518Z,13.55
2023-05-06T08:41:26.603Z,11.48
2023-05-06T08:43:28.833Z,11.93
2023-05-06T08:45:30.426Z,10.02
2023-05-06T08:47:32.027Z,18.73
2023-05-06T08:49:33.638Z,10.63
2023-05-06T08:51:35.349Z,10.57
2023-05-06T08:53:37.590Z,10.50
2023-05-06T08:55:41.844Z,10.43
2023-05-06T08:57:44.169Z,9.23
2023-05-06T08:59:45.881Z,9.15
2023-05-06T09:01:48.517Z,7.28
2023-05-06T09:03:50.297Z,7.35
2023-05-06T09:05:51.838Z,7.95
2023-05-06T09:07:53.308Z,8.18
2023-05-06T09:09:55.352Z,8.32
2023-05-06T09:11:57.739Z,10.15
2023-05-06T09:14:19.186Z,6.68
2023-05-06T09:16:29.322Z,5.30
2023-05-06T09:18:31.070Z,5.90
2023-05-06T09:20:36.202Z,6.20
2023-05-06T09:22:40.336Z,6.47
2023-05-06T09:24:42.127Z,5.78
2023-05-06T09:26:45.500Z,6.47
2023-05-06T09:28:47.130Z,6.95
2023-05-06T09:30:48.890Z,7.88
2023-05-06T09:33:03.650Z,6.65
2023-05-06T09:35:05.922Z,6.78
2023-05-06T09:37:07.504Z,6.80
2023-05-06T09:39:10.246Z,7.40
2023-05-06T09:41:13.776Z,5.45
2023-05-06T09:43:15.786Z,5.50
2023-05-06T09:45:17.908Z,4.70
2023-05-06T09:47:20.841Z,5.03
2023-05-06T09:49:22.349Z,4.65
2023-05-06T09:51:24.137Z,4.90
2023-05-06T09:53:27.705Z,4.45
2023-05-06T09:55:30.282Z,3.65
2023-05-06T09:57:32.557Z,4.35
2023-05-06T09:59:34.192Z,4.28
2023-05-06T10:01:37.745Z,4.82
2023-05-06T10:03:39.982Z,3.42
2023-05-06T10:05:42.063Z,3.38
2023-05-06T10:07:43.679Z,3.45
2023-05-06T10:09:45.767Z,2.70
2023-05-06T10:11:47.608Z,4.93
2023-05-06T10:13:49.740Z,4.20
2023-05-06T10:15:51.750Z,4.05
2023-05-06T10:17:54.088Z,4.47
2023-05-06T10:19:57.578Z,4.07
2023-05-06T10:22:06.324Z,2.78
2023-05-06T10:24:11.770Z,2.90
2023-05-06T10:26:14.266Z,3.00
2023-05-06T10:28:19.254Z,2.63
2023-05-06T10:30:29.418Z,3.47
2023-05-06T10:32:32.649Z,3.13
2023-05-06T10:34:38.177Z,4.95
2023-05-06T10:36:40.586Z,2.75
2023-05-06T10:38:44.346Z,3.15
2023-05-06T10:40:46.424Z,3.28
2023-05-06T10:42:48.230Z,2.90
2023-05-06T10:45:06.160Z,2.28
2023-05-06T10:47:09.118Z,3.13
2023-05-06T10:49:13.978Z,3.00
2023-05-06T10:51:27.088Z,2.83
2023-05-06T10:53:56.360Z,2.80
2023-05-06T10:56:09.365Z,3.72
2023-05-06T10:58:10.869Z,2.55
2023-05-06T11:00:13.090Z,6.18
2023-05-06T11:02:15.010Z,3.80
2023-05-06T11:04:19.393Z,2.25
2023-05-06T11:06:36.522Z,7.70
2023-05-06T11:08:38.984Z,2.65
2023-05-06T11:10:40.554Z,5.95
2023-05-06T11:12:51.549Z,4.47
2023-05-06T11:14:53.061Z,3.33
2023-05-06T11:16:56.898Z,5.40
2023-05-06T11:18:58.574Z,3.30
2023-05-06T11:20:59.998Z,2.53
2023-05-06T11:23:01.574Z,2.85
2023-05-06T11:25:06.443Z,1.90
2023-05-06T11:27:09.304Z,2.78
2023-05-06T11:29:11.243Z,2.97
2023-05-06T11:31:13.691Z,1.85
2023-05-06T11:33:19.133Z,2.45
2023-05-06T11:35:22.914Z,1.85
2023-05-06T11:37:28.823Z,2.53
2023-05-06T11:39:36.697Z,2.13
2023-05-06T11:41:41.218Z,2.33
2023-05-06T11:43:52.649Z,2.63
2023-05-06T11:45:54.233Z,2.90
2023-05-06T11:47:55.962Z,1.83
2023-05-06T11:49:58.581Z,2.10
2023-05-06T11:52:00.215Z,2.83
2023-05-06T11:54:09.431Z,2.63
2023-05-06T11:56:11.091Z,3.35
2023-05-06T11:58:20.706Z,3.30
2023-05-06T12:00:22.406Z,2.35
2023-05-06T12:02:24.085Z,1.80
2023-05-06T12:04:25.739Z,4.03
2023-05-06T12:06:36.790Z,2.58
2023-05-06T12:08:38.529Z,3.30
2023-05-06T12:10:40.058Z,1.85
2023-05-06T12:12:41.697Z,2.45
2023-05-06T12:14:44.399Z,2.15
2023-05-06T12:16:46.233Z,1.70
2023-05-06T12:18:48.326Z,2.15
2023-05-06T12:20:49.923Z,1.45
2023-05-06T12:23:12.045Z,2.40
2023-05-06T12:25:16.620Z,1.88
2023-05-06T12:27:31.008Z,1.63
2023-05-06T12:29:32.494Z,2.03
2023-05-06T12:31:34.335Z,1.95
2023-05-06T12:33:46.439Z,1.70
2023-05-06T12:35:48.181Z,3.63
2023-05-06T12:37:49.771Z,2.22
2023-05-06T12:39:51.285Z,2.05
2023-05-06T12:41:54.106Z,3.17
2023-05-06T12:43:55.686Z,1.83
2023-05-06T12:46:05.148Z,2.53
2023-05-06T12:48:07.192Z,2.08
2023-05-06T12:50:09.348Z,2.33
2023-05-06T12:52:11.231Z,2.33
2023-05-06T12:54:31.564Z,1.70
2023-05-06T12:56:33.095Z,1.50
2023-05-06T12:58:37.674Z,1.95
2023-05-06T13:00:39.175Z,1.45
2023-05-06T13:02:41.411Z,1.98
2023-05-06T13:04:43.057Z,2.45
2023-05-06T13:06:44.578Z,1.70
2023-05-06T13:08:46.172Z,2.20
2023-05-06T13:10:47.841Z,1.85
2023-05-06T13:12:49.767Z,4.00
2023-05-06T13:14:51.275Z,1.88
2023-05-06T13:16:53.216Z,2.53
2023-05-06T13:18:54.860Z,1.70
2023-05-06T13:20:56.924Z,1.40
2023-05-06T13:22:58.498Z,1.88
2023-05-06T13:25:00.037Z,2.13
2023-05-06T13:27:02.296Z,1.45
2023-05-06T13:29:04.127Z,1.95
2023-05-06T13:31:06.070Z,1.70
2023-05-06T13:33:08.127Z,1.73
2023-05-06T13:35:10.381Z,2.60
2023-05-06T13:37:12.092Z,1.90
2023-05-06T13:39:13.872Z,1.92
2023-05-06T13:41:15.515Z,2.80
2023-05-06T13:43:17.779Z,2.80
2023-05-06T13:45:19.355Z,1.63
2023-05-06T13:47:21.413Z,1.63
2023-05-06T13:49:22.903Z,2.25
2023-05-06T13:51:27.955Z,3.05
2023-05-06T13:53:29.440Z,1.30
2023-05-06T13:55:31.340Z,1.73
2023-05-06T13:57:33.171Z,2.13
2023-05-06T13:59:34.756Z,1.67
2023-05-06T14:01:36.778Z,1.75
2023-05-06T14:03:38.356Z,2.28
2023-05-06T14:05:39.922Z,2.65
2023-05-06T14:07:41.760Z,2.88
2023-05-06T14:09:43.563Z,2.25
2023-05-06T14:11:45.041Z,1.88
2023-05-06T14:13:46.562Z,1.48
2023-05-06T14:15:48.124Z,3.17
2023-05-06T14:17:49.747Z,1.58
2023-05-06T14:19:51.283Z,1.70
2023-05-06T14:21:52.877Z,1.45
2023-05-06T14:23:54.409Z,1.40
2023-05-06T14:25:55.932Z,2.20
2023-05-06T14:27:57.517Z,1.77
2023-05-06T14:29:59.011Z,6.28
2023-05-06T14:32:00.659Z,1.77
2023-05-06T14:34:02.542Z,1.17
2023-05-06T14:36:04.375Z,2.22
2023-05-06T14:38:05.884Z,1.60
2023-05-06T14:40:08.112Z,3.20
2023-05-06T14:42:10.145Z,2.33
2023-05-06T14:44:11.641Z,1.10
2023-05-06T14:46:14.723Z,1.55
2023-05-06T14:48:16.681Z,2.05
2023-05-06T14:50:18.674Z,1.45
2023-05-06T14:52:20.359Z,1.58
2023-05-06T14:54:21.841Z,1.60
2023-05-06T14:56:23.417Z,1.77
2023-05-06T14:58:24.895Z,1.50
2023-05-06T15:00:26.484Z,1.55
2023-05-06T15:02:28.082Z,2.42
2023-05-06T15:04:29.666Z,1.63
2023-05-06T15:06:31.920Z,1.63
2023-05-06T15:08:33.421Z,1.90
2023-05-06T15:10:34.936Z,1.52
2023-05-06T15:12:37.321Z,2.97
2023-05-06T15:14:42.170Z,2.65
2023-05-06T15:16:43.796Z,1.70
2023-05-06T15:18:45.408Z,2.65
2023-05-06T15:20:47.097Z,1.58
2023-05-06T15:22:48.607Z,1.98
2023-05-06T15:24:50.096Z,1.70
2023-05-06T15:26:52.012Z,2.88
2023-05-06T15:28:53.601Z,0.80
2023-05-06T15:30:55.117Z,1.63
2023-05-06T15:32:56.805Z,1.63
2023-05-06T15:34:58.372Z,2.33
2023-05-06T15:37:02.533Z,2.25
2023-05-06T15:39:04.254Z,3.38
2023-05-06T15:41:06.021Z,2.55
2023-05-06T15:43:08.486Z,1.77
2023-05-06T15:45:11.269Z,1.58
2023-05-06T15:47:12.823Z,2.33
2023-05-06T15:49:45.720Z,1.38
2023-05-06T15:51:35.898Z,3.42
2023-05-06T15:53:40.959Z,1.30
2023-05-06T15:55:46.962Z,2.30
2023-05-06T15:57:59.897Z,0.88
2023-05-06T16:00:02.356Z,1.15
2023-05-06T16:04:08.527Z,0.75
2023-05-06T16:06:11.051Z,1.35
2023-05-06T16:08:12.604Z,3.13
2023-05-06T16:10:14.185Z,2.63
2023-05-06T16:12:15.778Z,1.42
2023-05-06T16:14:17.424Z,1.48
2023-05-06T16:16:18.955Z,0.90
2023-05-06T16:18:20.712Z,1.90
2023-05-06T16:20:22.389Z,3.55
2023-05-06T16:22:23.866Z,1.50
2023-05-06T16:24:25.398Z,2.05
2023-05-06T16:26:26.867Z,1.70
2023-05-06T16:28:28.536Z,1.15
2023-05-06T16:30:30.143Z,1.65
2023-05-06T16:32:31.736Z,1.40
2023-05-06T16:34:33.292Z,0.95
2023-05-06T16:36:35.282Z,1.05
2023-05-06T16:38:36.871Z,2.72
2023-05-06T16:40:42.572Z,2.58
2023-05-06T16:42:44.146Z,1.27
2023-05-06T16:44:46.459Z,0.80
2023-05-06T16:46:48.090Z,7.15
2023-05-06T16:48:49.767Z,0.77
2023-05-06T16:50:51.894Z,1.00
2023-05-06T16:52:54.013Z,1.50
2023-05-06T16:54:55.478Z,2.38
2023-05-06T16:56:56.989Z,2.55
2023-05-06T16:58:58.508Z,1.27
2023-05-06T17:01:00.182Z,0.98
2023-05-06T17:03:02.117Z,1.08
2023-05-06T17:05:04.089Z,2.85
2023-05-06T17:07:05.682Z,1.13
2023-05-06T17:09:07.184Z,1.05
2023-05-06T17:11:08.725Z,0.80
2023-05-06T17:13:10.333Z,0.93
2023-05-06T17:15:12.073Z,3.03
2023-05-06T17:17:13.624Z,2.22
2023-05-06T17:19:15.207Z,5.32
2023-05-06T17:21:16.899Z,3.63
2023-05-06T17:23:18.372Z,1.88
2023-05-06T17:25:20.094Z,1.75
2023-05-06T17:27:21.544Z,5.60
2023-05-06T17:29:23.068Z,1.02
2023-05-06T17:31:24.726Z,1.35
2023-05-06T17:33:26.402Z,1.92
2023-05-06T17:35:27.905Z,2.13
2023-05-06T17:37:30.906Z,1.77
2023-05-06T17:39:35.052Z,4.70
2023-05-06T17:41:36.727Z,2.97
2023-05-06T17:43:38.268Z,0.90
2023-05-06T17:45:40.742Z,1.13
2023-05-06T17:47:42.339Z,5.03
2023-05-06T17:49:43.854Z,2.15
2023-05-06T17:51:46.244Z,1.20
2023-05-06T17:53:47.784Z,1.63
2023-05-06T17:55:49.252Z,1.27
2023-05-06T17:57:52.495Z,1.50
2023-05-06T17:59:54.024Z,1.65
2023-05-06T18:01:55.655Z,1.60
2023-05-06T18:03:58.047Z,2.75
2023-05-06T18:05:59.963Z,1.05
2023-05-06T18:08:01.538Z,1.58
2023-05-06T18:10:03.415Z,2.15
2023-05-06T18:12:05.269Z,2.25
2023-05-06T18:14:06.882Z,1.10
2023-05-06T18:16:08.499Z,1.08
2023-05-06T18:18:10.113Z,1.42
2023-05-06T18:20:12.293Z,0.90
2023-05-06T18:22:13.838Z,1.20
2023-05-06T18:24:16.770Z,0.93
2023-05-06T18:26:31.739Z,2.33
2023-05-06T18:28:43.525Z,1.60
2023-05-06T18:30:45.010Z,4.78
2023-05-06T18:32:47.699Z,2.15
2023-05-06T18:34:50.266Z,2.05
2023-05-06T18:36:51.767Z,1.10
2023-05-06T18:38:53.336Z,1.10
2023-05-06T18:40:54.849Z,1.20
2023-05-06T18:42:56.676Z,1.42
2023-05-06T18:44:58.229Z,2.42
2023-05-06T18:46:59.693Z,0.95
2023-05-06T18:49:01.458Z,1.83
2023-05-06T18:51:17.045Z,1.30
2023-05-06T18:53:18.579Z,2.60
2023-05-06T18:55:20.247Z,3.30
2023-05-06T18:57:21.915Z,1.33
2023-05-06T18:59:23.462Z,1.35
2023-05-06T19:01:25.346Z,1.10
2023-05-06T19:03:27.156Z,1.40
2023-05-06T19:05:28.615Z,1.38
2023-05-06T19:07:30.141Z,2.28
2023-05-06T19:09:36.725Z,2.78
2023-05-06T19:11:38.703Z,2.00
2023-05-06T19:13:40.788Z,1.50
2023-05-06T19:15:42.301Z,1.30
2023-05-06T19:17:43.815Z,1.48
2023-05-06T19:19:47.008Z,1.42
2023-05-06T19:21:48.623Z,1.45
2023-05-06T19:23:50.163Z,1.75
2023-05-06T19:25:51.706Z,1.40
2023-05-06T19:27:53.281Z,4.18
2023-05-06T19:29:55.149Z,2.08
2023-05-06T19:31:56.651Z,2.20
2023-05-06T19:33:58.145Z,1.58
2023-05-06T19:35:59.624Z,1.58
2023-05-06T19:38:01.169Z,3.08
2023-05-06T19:40:04.304Z,2.72
2023-05-06T19:42:05.914Z,6.45
2023-05-06T19:44:07.602Z,1.20
2023-05-06T19:46:09.834Z,3.40
2023-05-06T19:48:12.878Z,2.10
2023-05-06T19:50:14.397Z,1.30
2023-05-06T19:52:15.928Z,1.73
2023-05-06T19:54:19.363Z,2.28
2023-05-06T19:56:21.136Z,2.53
2023-05-06T19:58:22.578Z,2.00
2023-05-06T20:00:25.558Z,8.27
2023-05-06T20:02:27.146Z,1.70
2023-05-06T20:04:28.706Z,1.98
2023-05-06T20:06:31.927Z,4.15
2023-05-06T20:08:33.570Z,2.13
2023-05-06T20:10:35.284Z,2.10
2023-05-06T20:12:36.881Z,3.70
2023-05-06T20:14:38.406Z,2.92
2023-05-06T20:16:42.859Z,2.08
2023-05-06T20:18:44.436Z,2.20
2023-05-06T20:20:47.222Z,4.93
2023-05-06T20:22:48.753Z,1.40
2023-05-06T20:24:51.084Z,1.48
2023-05-06T20:26:52.565Z,2.40
2023-05-06T20:28:54.252Z,1.80
2023-05-06T20:30:56.151Z,1.77
2023-05-06T20:32:57.682Z,1.70
2023-05-06T20:34:59.283Z,1.73
2023-05-06T20:37:01.499Z,3.90
2023-05-06T20:39:03.111Z,3.17
2023-05-06T20:41:04.645Z,2.50
2023-05-06T20:43:06.173Z,2.38
2023-05-06T20:45:08.388Z,1.73
2023-05-06T20:47:12.474Z,1.85
2023-05-06T20:49:14.302Z,3.28
2023-05-06T20:51:16.029Z,2.75
2023-05-06T20:53:17.613Z,1.33
2023-05-06T20:55:23.108Z,1.88
2023-05-06T20:57:24.772Z,2.03
2023-05-06T20:59:28.505Z,2.58
2023-05-06T21:01:30.030Z,1.48
2023-05-06T21:03:31.682Z,1.52
2023-05-06T21:05:33.217Z,4.18
2023-05-06T21:07:34.756Z,1.52
2023-05-06T21:09:36.387Z,2.08
2023-05-06T21:11:37.954Z,2.28
2023-05-06T21:13:40.093Z,1.92
2023-05-06T21:15:41.696Z,2.28
2023-05-06T21:17:43.760Z,2.60
2023-05-06T21:19:45.293Z,3.90
2023-05-06T21:21:46.881Z,3.08
2023-05-06T21:23:48.442Z,5.18
2023-05-06T21:25:50.026Z,3.40
2023-05-06T21:27:51.523Z,3.25
2023-05-06T21:29:53.039Z,2.95
2023-05-06T21:31:54.537Z,2.53
2023-05-06T21:33:58.377Z,2.42
2023-05-06T21:36:00.167Z,2.20
2023-05-06T21:38:01.712Z,1.90
2023-05-06T21:40:04.517Z,3.28
2023-05-06T21:42:06.058Z,3.03
2023-05-06T21:44:08.997Z,2.25
2023-05-06T21:46:10.578Z,2.15
2023-05-06T21:48:12.082Z,1.80
2023-05-06T21:50:13.802Z,2.70
2023-05-06T21:52:15.450Z,2.17
2023-05-06T21:54:17.442Z,3.33
2023-05-06T21:56:19.021Z,2.80
2023-05-06T21:58:20.541Z,2.03
2023-05-06T22:00:22.962Z,1.80
2023-05-06T22:02:24.757Z,3.22
2023-05-06T22:04:26.559Z,6.68
2023-05-06T22:06:28.137Z,2.85
2023-05-06T22:08:30.000Z,4.18
2023-05-06T22:10:31.602Z,2.75
2023-05-06T22:12:33.118Z,4.60
2023-05-06T22:14:41.197Z,3.67
2023-05-06T22:16:45.769Z,2.45
2023-05-06T22:18:47.617Z,5.07
2023-05-06T22:20:50.726Z,5.10
2023-05-06T22:22:52.474Z,5.15
2023-05-06T22:24:54.016Z,3.17
2023-05-06T22:26:56.237Z,3.17
2023-05-06T22:28:57.770Z,2.97
2023-05-06T22:30:59.266Z,5.57
2023-05-06T22:33:00.885Z,3.03
2023-05-06T22:35:02.453Z,5.30
2023-05-06T22:37:09.850Z,3.90
2023-05-06T22:39:11.399Z,3.58
2023-05-06T22:41:12.938Z,4.28
2023-05-06T22:43:14.406Z,5.22
2023-05-06T22:45:15.901Z,7.63
2023-05-06T22:47:19.640Z,8.05
2023-05-06T22:49:21.182Z,7.82
2023-05-06T22:51:22.814Z,7.10
2023-05-06T22:53:24.622Z,7.32
2023-05-06T22:55:26.236Z,5.10
2023-05-06T22:57:27.818Z,4.75
2023-05-06T22:59:30.111Z,4.70
2023-05-06T23:01:32.521Z,5.85
2023-05-06T23:03:34.553Z,3.80
2023-05-06T23:05:36.167Z,6.75
2023-05-06T23:07:38.361Z,5.20
2023-05-06T23:09:39.880Z,4.10
2023-05-06T23:11:41.645Z,3.92
2023-05-06T23:13:43.275Z,4.30
2023-05-06T23:15:44.757Z,4.40
2023-05-06T23:17:46.486Z,5.63
2023-05-06T23:19:47.996Z,3.30
2023-05-06T23:21:49.535Z,6.43
2023-05-06T23:23:51.079Z,4.82
2023-05-06T23:25:53.386Z,3.75
2023-05-06T23:27:55.295Z,3.85
2023-05-06T23:29:56.814Z,4.03
2023-05-06T23:31:58.332Z,3.60
2023-05-06T23:33:59.815Z,3.00
2023-05-06T23:36:02.501Z,8.50
2023-05-06T23:38:04.037Z,3.17
2023-05-06T23:40:06.202Z,2.90
2023-05-06T23:42:07.733Z,3.08
2023-05-06T23:44:09.228Z,3.38
2023-05-06T23:46:11.267Z,3.50
2023-05-06T23:48:12.840Z,2.33
2023-05-06T23:50:14.739Z,5.00
2023-05-06T23:52:16.474Z,2.20
2023-05-06T23:54:18.057Z,2.33
2023-05-06T23:56:20.577Z,2.53
2023-05-06T23:58:22.175Z,2.38
